Eufola, North Carolina
Current Conditions -  °F | °C
As of 3:35 AM on Friday 28 Nov 2014 (Local Time) from KSVH Reporting Station
Clear Clear  
Wind Chill: 27°   Ceiling: Unl
Heat Index: 27°   Visibility: 10mi
Dew Point: 21°   Wind: 0mph
Humidity: 77%   Direction: NA
Pressure: 30.3"   Gusts: NA
Location:  35.8306°N, 80.9003°W
Report Text: KSVH 280835Z AUTO 00000KT 10SM CLR M03/M06 A3030 RMK AO2 T10271062
Loading
Personal Weather Stations






























Interactive Weather Map New forecast layout! Learn more

10-Day Weather Forecast

Advertisements
Track Severe Weather on mobile